Time;durP1;ratioP1;P1;durP2;ratioP2;P2;SDS_P1;SDS_P2;PMS_P1;PMS_P2;Temp;Humidity;BMP_temperature;BMP_pressure;BME280_temperature;BME280_humidity;BME280_pressure;Samples;Min_cycle;Max_cycle;Signal;HPM_P1;HPM_P2
2022/05/15 00:00:53;;;;;;;;;;;;;;;21.56;49.73;101656.13;7289231;19;152532;-61
2022/05/15 00:03:22;;;;;;;;;;;;;;;21.55;50.00;101669.31;7280550;19;151983;-60
2022/05/15 00:05:52;;;;;;;;;;;;;;;21.59;50.23;101672.38;7285491;19;153870;-59
2022/05/15 00:08:19;;;;;;;;;;;;;;;21.59;50.01;101661.97;7284034;19;153973;-60
2022/05/15 00:10:47;;;;;;;;;;;;;;;21.59;50.48;101656.34;7283042;19;151734;-59
2022/05/15 00:13:14;;;;;;;;;;;;;;;21.62;50.52;101663.38;7282947;19;152733;-60
2022/05/15 00:15:41;;;;;;;;;;;;;;;21.63;49.97;101656.59;7283217;19;153781;-60
2022/05/15 00:18:08;;;;;;;;;;;;;;;21.66;50.65;101650.38;7282158;19;151955;-60
2022/05/15 00:20:37;;;;;;;;;;;;;;;21.62;50.38;101647.31;7286489;19;152643;-61
2022/05/15 00:23:04;;;;;;;;;;;;;;;21.64;50.64;101647.84;7284339;19;151861;-59
2022/05/15 00:25:30;;;;;;;;;;;;;;;21.66;50.69;101634.34;7290343;19;153803;-59
2022/05/15 00:27:58;;;;;;;;;;;;;;;21.64;49.99;101628.16;7289797;19;152528;-59
2022/05/15 00:30:25;;;;;;;;;;;;;;;21.64;50.28;101616.06;7290399;19;151805;-60
2022/05/15 00:32:52;;;;;;;;;;;;;;;21.63;50.54;101612.44;7289821;19;153332;-60
2022/05/15 00:35:19;;;;;;;;;;;;;;;21.64;50.96;101622.53;7289608;19;153262;-60
2022/05/15 00:37:46;;;;;;;;;;;;;;;21.65;50.47;101620.56;7288196;19;151881;-60
2022/05/15 00:40:15;;;;;;;;;;;;;;;21.65;50.34;101617.75;7288043;19;152843;-61
2022/05/15 00:42:42;;;;;;;;;;;;;;;21.64;50.73;101616.06;7293699;19;153480;-61
2022/05/15 00:45:10;;;;;;;;;;;;;;;21.66;51.08;101620.28;7290840;19;153343;-61
2022/05/15 00:47:37;;;;;;;;;;;;;;;21.67;51.13;101607.03;7286339;19;153443;-60
2022/05/15 00:50:07;;;;;;;;;;;;;;;21.71;51.08;101603.31;7288680;19;151936;-61
2022/05/15 00:52:35;;;;;;;;;;;;;;;21.69;51.35;101599.97;7289023;19;152979;-60
2022/05/15 00:55:02;;;;;;;;;;;;;;;21.73;51.42;101608.66;7288923;19;154453;-61
2022/05/15 00:57:33;;;;;;;;;;;;;;;21.69;51.22;101611.22;7287841;19;153962;-59
2022/05/15 01:00:17;;;;;;;;;;;;;;;21.67;51.45;101621.09;7286827;19;152966;-59
2022/05/15 01:02:48;;;;;;;;;;;;;;;21.66;51.21;101616.63;7286355;19;153892;-62
2022/05/15 01:05:15;;;;;;;;;;;;;;;21.65;51.37;101607.34;7295394;19;152188;-60
2022/05/15 01:07:42;;;;;;;;;;;;;;;21.64;51.69;101616.91;7287018;19;155526;-60
2022/05/15 01:10:10;;;;;;;;;;;;;;;21.65;52.01;101626.19;7289438;19;151736;-59
2022/05/15 01:12:40;;;;;;;;;;;;;;;21.66;51.89;101625.91;7289314;19;153511;-59
2022/05/15 01:15:14;;;;;;;;;;;;;;;21.67;52.18;101621.09;7285159;19;154296;-60
2022/05/15 01:17:40;;;;;;;;;;;;;;;21.68;52.18;101620.81;7286880;19;152195;-60
2022/05/15 01:20:09;;;;;;;;;;;;;;;21.70;52.16;101618.53;7289175;19;153563;-59
2022/05/15 01:22:36;;;;;;;;;;;;;;;21.70;52.01;101607.28;7285708;19;154322;-59
2022/05/15 01:25:06;;;;;;;;;;;;;;;21.71;52.19;101608.94;7289038;19;151826;-60
2022/05/15 01:27:33;;;;;;;;;;;;;;;21.73;52.52;101600.22;7295650;19;153225;-58
2022/05/15 01:30:00;;;;;;;;;;;;;;;21.76;52.11;101608.03;7287834;19;154459;-60
2022/05/15 01:32:27;;;;;;;;;;;;;;;21.73;52.30;101600.22;7284470;19;153430;-60
2022/05/15 01:34:55;;;;;;;;;;;;;;;21.73;52.27;101592.63;7286553;19;153751;-59
2022/05/15 01:37:21;;;;;;;;;;;;;;;21.73;52.20;101586.16;7285131;19;152083;-60
2022/05/15 01:39:48;;;;;;;;;;;;;;;21.78;52.27;101579.63;7287002;19;152774;-60
2022/05/15 01:42:15;;;;;;;;;;;;;;;21.72;52.24;101581.66;7287330;19;153802;-60
2022/05/15 01:44:42;;;;;;;;;;;;;;;21.74;52.60;101576.59;7289123;19;151577;-60
2022/05/15 01:47:09;;;;;;;;;;;;;;;21.68;52.59;101584.25;7287857;19;153551;-60
2022/05/15 01:49:36;;;;;;;;;;;;;;;21.70;52.40;101579.16;7294208;19;152347;-60
2022/05/15 01:52:03;;;;;;;;;;;;;;;21.72;52.24;101573.22;7285962;19;152544;-59
2022/05/15 01:54:30;;;;;;;;;;;;;;;21.72;52.28;101571.25;7284433;19;153763;-60
2022/05/15 01:56:57;;;;;;;;;;;;;;;21.72;52.44;101567.59;7286041;19;152149;-60
2022/05/15 01:59:23;;;;;;;;;;;;;;;21.69;52.77;101554.97;7287739;19;152502;-60
2022/05/15 02:01:50;;;;;;;;;;;;;;;21.73;52.48;101552.41;7286725;19;153938;-60
2022/05/15 02:04:17;;;;;;;;;;;;;;;21.75;52.38;101552.94;7286748;19;151743;-60
2022/05/15 02:06:44;;;;;;;;;;;;;;;21.71;52.52;101561.13;7287654;19;152554;-61
2022/05/15 02:09:11;;;;;;;;;;;;;;;21.70;52.65;101565.09;7285907;19;154077;-59
2022/05/15 02:11:38;;;;;;;;;;;;;;;21.69;52.43;101560.59;7295080;19;151451;-60
2022/05/15 02:14:06;;;;;;;;;;;;;;;21.70;52.54;101553.84;7283922;19;154363;-60
2022/05/15 02:16:32;;;;;;;;;;;;;;;21.71;52.81;101549.06;7287585;19;151478;-60
2022/05/15 02:18:59;;;;;;;;;;;;;;;21.71;52.85;101546.25;7286773;19;153351;-59
2022/05/15 02:21:26;;;;;;;;;;;;;;;21.70;52.65;101539.78;7284231;19;153224;-60
2022/05/15 02:23:53;;;;;;;;;;;;;;;21.71;53.11;101544.25;7287822;19;152004;-59
2022/05/15 02:26:20;;;;;;;;;;;;;;;21.69;53.06;101556.97;7283932;19;153443;-60
2022/05/15 02:28:47;;;;;;;;;;;;;;;21.70;52.99;101553.84;7286547;19;153280;-60
2022/05/15 02:31:13;;;;;;;;;;;;;;;21.69;53.45;101546.53;7294074;19;152380;-60
2022/05/15 02:33:41;;;;;;;;;;;;;;;21.70;53.51;101545.41;7285095;19;154274;-60
2022/05/15 02:36:08;;;;;;;;;;;;;;;21.71;53.33;101544.25;7287416;19;152073;-61
2022/05/15 02:38:36;;;;;;;;;;;;;;;21.72;53.68;101531.88;7285595;19;153085;-60
2022/05/15 02:41:03;;;;;;;;;;;;;;;21.76;53.67;101534.09;7285797;19;153636;-62
2022/05/15 02:43:30;;;;;;;;;;;;;;;21.74;53.46;101551.25;7286269;19;151650;-60
2022/05/15 02:45:57;;;;;;;;;;;;;;;21.78;53.46;101569.22;7285390;19;153115;-60
2022/05/15 02:51:03;;;;;;;;;;;;;;;21.80;53.47;101552.03;7284267;19;152131;-60
2022/05/15 02:53:31;;;;;;;;;;;;;;;21.77;53.58;101563.88;7292840;19;153272;-59
2022/05/15 02:55:59;;;;;;;;;;;;;;;21.78;53.44;101559.94;7283802;19;152514;-60
2022/05/15 02:58:26;;;;;;;;;;;;;;;21.78;53.53;101557.97;7285782;19;153040;-59
2022/05/15 03:00:53;;;;;;;;;;;;;;;21.76;53.57;101565.84;7286062;19;153226;-60
2022/05/15 03:03:19;;;;;;;;;;;;;;;21.78;53.11;101557.97;7283013;19;153613;-59
2022/05/15 03:05:46;;;;;;;;;;;;;;;21.78;53.32;101555.16;7286626;19;153269;-60
2022/05/15 03:08:13;;;;;;;;;;;;;;;21.80;53.38;101560.47;7283761;19;154266;-60
2022/05/15 03:10:40;;;;;;;;;;;;;;;21.79;53.01;101567.22;7284498;19;151790;-60
2022/05/15 03:13:06;;;;;;;;;;;;;;;21.79;53.20;101564.41;7287059;19;152699;-60
2022/05/15 03:15:33;;;;;;;;;;;;;;;21.77;53.04;101561.06;7292636;19;153698;-59
2022/05/15 03:18:00;;;;;;;;;;;;;;;21.76;53.47;101550.97;7285696;19;152930;-60
2022/05/15 03:20:27;;;;;;;;;;;;;;;21.79;53.06;101553.16;7285032;19;153247;-58
2022/05/15 03:22:54;;;;;;;;;;;;;;;21.75;53.08;101555.75;7286280;19;151728;-59
2022/05/15 03:25:21;;;;;;;;;;;;;;;21.77;53.07;101555.44;7283092;19;152704;-60
2022/05/15 03:30:15;;;;;;;;;;;;;;;21.77;53.47;101550.66;7285644;19;151707;-60
2022/05/15 03:32:40;;;;;;;;;;;;;;;21.76;53.09;101556.59;7282911;19;152154;-60
2022/05/15 03:35:09;;;;;;;;;;;;;;;21.77;52.87;101556.28;7281555;19;153884;-59
2022/05/15 03:37:35;;;;;;;;;;;;;;;21.72;53.50;101554.38;7290523;19;152311;-60
2022/05/15 03:40:02;;;;;;;;;;;;;;;21.70;53.03;101544.56;7278911;19;151890;-60
2022/05/15 03:42:29;;;;;;;;;;;;;;;21.73;53.64;101541.16;7282544;19;151664;-59
2022/05/15 03:44:56;;;;;;;;;;;;;;;21.70;53.16;101534.16;7286127;19;153651;-60
2022/05/15 03:47:23;;;;;;;;;;;;;;;21.68;53.21;101524.34;7278532;19;152239;-60
2022/05/15 03:49:50;;;;;;;;;;;;;;;21.67;53.41;101522.66;7280444;19;151547;-60
2022/05/15 03:52:17;;;;;;;;;;;;;;;21.69;53.41;101514.75;7285975;19;154035;-60
2022/05/15 03:54:44;;;;;;;;;;;;;;;21.68;53.42;101541.22;7280409;19;153863;-61
2022/05/15 03:57:11;;;;;;;;;;;;;;;21.69;53.19;101554.13;7281933;19;151720;-60
2022/05/15 03:59:39;;;;;;;;;;;;;;;21.70;53.19;101559.47;7288743;19;153359;-60
2022/05/15 04:02:07;;;;;;;;;;;;;;;21.71;53.13;101560.31;7282773;19;152053;-59
2022/05/15 04:04:34;;;;;;;;;;;;;;;21.71;53.33;101557.50;7281867;19;152618;-60
2022/05/15 04:07:02;;;;;;;;;;;;;;;21.68;53.08;101549.66;7281634;19;155353;-61
2022/05/15 04:09:30;;;;;;;;;;;;;;;21.67;53.24;101546.00;7284319;19;151806;-60
2022/05/15 04:11:57;;;;;;;;;;;;;;;21.68;53.46;101544.88;7283400;19;153293;-60
2022/05/15 04:14:22;;;;;;;;;;;;;;;21.67;53.25;101543.19;7280475;19;152066;-60
2022/05/15 04:16:49;;;;;;;;;;;;;;;21.65;53.39;101541.81;7281919;19;151891;-60
2022/05/15 04:19:16;;;;;;;;;;;;;;;21.65;53.55;101544.63;7283779;19;153550;-59
2022/05/15 04:21:43;;;;;;;;;;;;;;;21.66;53.42;101540.69;7289322;19;151860;-60
2022/05/15 04:24:11;;;;;;;;;;;;;;;21.65;53.27;101537.03;7282023;19;151729;-60
2022/05/15 04:26:38;;;;;;;;;;;;;;;21.62;53.14;101532.00;7279500;19;153369;-60
2022/05/15 04:29:05;;;;;;;;;;;;;;;21.62;53.28;101537.63;7282220;19;151810;-59
2022/05/15 04:31:33;;;;;;;;;;;;;;;21.63;53.35;101549.72;7281269;19;153583;-59
2022/05/15 04:34:01;;;;;;;;;;;;;;;21.64;53.64;101548.59;7281424;19;154579;-61
2022/05/15 04:36:32;;;;;;;;;;;;;;;21.65;53.16;101548.28;7283506;19;151960;-60
2022/05/15 04:39:01;;;;;;;;;;;;;;;21.62;53.31;101551.69;7283750;19;153431;-60
2022/05/15 04:41:28;;;;;;;;;;;;;;;21.62;53.05;101548.06;7288154;19;154257;-60
2022/05/15 04:43:55;;;;;;;;;;;;;;;21.60;53.14;101539.06;7283329;19;152610;-58
2022/05/15 04:46:25;;;;;;;;;;;;;;;21.60;53.53;101542.72;7281463;19;153434;-59
2022/05/15 04:48:52;;;;;;;;;;;;;;;21.59;53.01;101531.78;7284075;19;152022;-61
2022/05/15 04:51:19;;;;;;;;;;;;;;;21.58;53.47;101527.28;7281627;19;153313;-60
2022/05/15 04:53:46;;;;;;;;;;;;;;;21.59;53.23;101529.81;7281389;19;153680;-60
2022/05/15 04:56:13;;;;;;;;;;;;;;;21.57;53.53;101534.06;7279731;19;151970;-60
2022/05/15 04:58:39;;;;;;;;;;;;;;;21.58;53.15;101528.13;7283258;19;153206;-60
2022/05/15 05:01:06;;;;;;;;;;;;;;;21.59;53.41;101531.78;7280710;19;153482;-60
2022/05/15 05:03:33;;;;;;;;;;;;;;;21.60;53.08;101528.66;7291075;19;152203;-60
2022/05/15 05:06:00;;;;;;;;;;;;;;;21.59;53.55;101523.34;7282589;19;153650;-60
2022/05/15 05:08:28;;;;;;;;;;;;;;;21.59;53.37;101526.16;7279976;19;152065;-59
2022/05/15 05:10:54;;;;;;;;;;;;;;;21.58;53.53;101527.28;7285921;19;152941;-59
2022/05/15 05:13:21;;;;;;;;;;;;;;;21.57;53.40;101522.81;7286727;19;154392;-60
2022/05/15 05:15:48;;;;;;;;;;;;;;;21.57;53.26;101536.88;7284918;19;151842;-60
2022/05/15 05:18:16;;;;;;;;;;;;;;;21.57;53.65;101539.69;7287500;19;152906;-60
2022/05/15 05:20:44;;;;;;;;;;;;;;;21.56;53.54;101540.81;7285853;19;154091;-60
2022/05/15 05:23:11;;;;;;;;;;;;;;;21.56;53.70;101538.00;7289073;19;151463;-60
2022/05/15 05:25:39;;;;;;;;;;;;;;;21.56;53.71;101546.44;7294501;19;152819;-59
2022/05/15 05:28:06;;;;;;;;;;;;;;;21.55;53.34;101539.97;7286098;19;151817;-60
2022/05/15 05:30:34;;;;;;;;;;;;;;;21.57;53.73;101539.69;7287955;19;153415;-59
2022/05/15 05:33:01;;;;;;;;;;;;;;;21.58;53.85;101535.72;7288129;19;153443;-60
2022/05/15 05:35:27;;;;;;;;;;;;;;;21.59;54.05;101531.78;7286383;19;152032;-60
2022/05/15 05:37:55;;;;;;;;;;;;;;;21.59;53.96;101540.22;7286931;19;153525;-59
2022/05/15 05:40:22;;;;;;;;;;;;;;;21.59;54.06;101540.22;7285706;19;154138;-60
2022/05/15 05:42:49;;;;;;;;;;;;;;;21.61;54.35;101535.13;7286772;19;152290;-59
2022/05/15 05:45:17;;;;;;;;;;;;;;;21.60;53.83;101539.06;7286190;19;152916;-58
2022/05/15 05:47:46;;;;;;;;;;;;;;;21.59;54.38;101538.25;7294509;19;153770;-60
2022/05/15 05:50:14;;;;;;;;;;;;;;;21.59;54.14;101532.63;7287490;19;152662;-60
2022/05/15 05:52:42;;;;;;;;;;;;;;;21.61;54.02;101529.50;7285396;19;154961;-60
2022/05/15 05:55:11;;;;;;;;;;;;;;;21.60;54.22;101517.41;7286914;19;152433;-60
2022/05/15 05:57:38;;;;;;;;;;;;;;;21.59;54.28;101507.31;7286119;19;152889;-60
2022/05/15 06:00:07;;;;;;;;;;;;;;;21.62;54.27;101509.50;7284824;19;153751;-59
2022/05/15 06:02:34;;;;;;;;;;;;;;;21.63;54.01;101508.38;7286000;19;151610;-59
2022/05/15 06:05:01;;;;;;;;;;;;;;;21.64;54.04;101510.06;7288304;19;152749;-60
2022/05/15 06:07:28;;;;;;;;;;;;;;;21.62;54.17;101514.31;7283535;19;154141;-60
2022/05/15 06:09:55;;;;;;;;;;;;;;;21.60;54.36;101508.97;7295541;19;151905;-61
2022/05/15 06:12:24;;;;;;;;;;;;;;;21.60;54.13;101506.16;7285071;19;153473;-59
2022/05/15 06:14:51;;;;;;;;;;;;;;;21.61;54.47;101513.47;7286130;19;151801;-59
2022/05/15 06:17:21;;;;;;;;;;;;;;;21.61;54.51;101507.84;7287060;19;153025;-58
2022/05/15 06:19:49;;;;;;;;;;;;;;;21.61;54.48;101501.38;7286747;19;154163;-59
2022/05/15 06:22:16;;;;;;;;;;;;;;;21.62;53.96;101480.56;7286966;19;151670;-60
2022/05/15 06:24:43;;;;;;;;;;;;;;;21.63;54.04;101487.84;7286579;19;153492;-60
2022/05/15 06:27:11;;;;;;;;;;;;;;;21.64;54.05;101493.19;7284121;19;153230;-59
2022/05/15 06:29:38;;;;;;;;;;;;;;;21.60;54.41;101502.53;7291422;19;152011;-59
2022/05/15 06:32:06;;;;;;;;;;;;;;;21.61;54.49;101507.00;7284000;19;153769;-60
2022/05/15 06:34:33;;;;;;;;;;;;;;;21.59;54.70;101498.88;7286781;19;151853;-59
2022/05/15 06:36:59;;;;;;;;;;;;;;;21.59;54.44;101498.88;7287246;19;153523;-59
2022/05/15 06:39:26;;;;;;;;;;;;;;;21.58;54.34;101491.56;7285334;19;154937;-60
2022/05/15 06:41:56;;;;;;;;;;;;;;;21.59;54.60;101487.63;7286660;19;152076;-60
2022/05/15 06:44:23;;;;;;;;;;;;;;;21.56;54.30;101474.16;7284844;19;153479;-60
2022/05/15 06:46:50;;;;;;;;;;;;;;;21.56;54.67;101471.38;7285076;19;153532;-59
2022/05/15 06:49:17;;;;;;;;;;;;;;;21.56;54.44;101465.75;7283800;19;151829;-59
2022/05/15 06:51:43;;;;;;;;;;;;;;;21.56;54.45;101453.66;7291352;19;153344;-60
2022/05/15 06:54:10;;;;;;;;;;;;;;;21.56;54.67;101457.31;7285746;19;152013;-60
2022/05/15 06:59:22;;;;;;;;;;;;;;;21.54;54.65;101439.88;7285335;19;153867;-60
2022/05/15 07:01:49;;;;;;;;;;;;;;;21.56;54.84;101454.50;7287177;19;151880;-60
2022/05/15 07:04:16;;;;;;;;;;;;;;;21.53;54.50;101449.44;7286312;19;152652;-60
2022/05/15 07:06:45;;;;;;;;;;;;;;;21.54;54.93;101450.28;7285737;19;154207;-60
2022/05/15 07:09:12;;;;;;;;;;;;;;;21.54;55.01;101444.66;7285570;19;151660;-60
2022/05/15 07:11:40;;;;;;;;;;;;;;;21.54;54.93;101437.06;7284225;19;151891;-60
2022/05/15 07:14:08;;;;;;;;;;;;;;;21.54;54.58;101417.38;7293219;19;153208;-60
2022/05/15 07:16:35;;;;;;;;;;;;;;;21.54;55.02;101420.19;7282414;19;153645;-60
2022/05/15 07:19:02;;;;;;;;;;;;;;;21.56;54.93;101420.75;7284632;19;154566;-60
2022/05/15 07:21:29;;;;;;;;;;;;;;;21.57;54.75;101415.97;7286017;19;151877;-60
2022/05/15 07:23:55;;;;;;;;;;;;;;;21.58;54.96;101414.81;7283632;19;152675;-60
2022/05/15 07:26:22;;;;;;;;;;;;;;;21.61;54.44;101406.63;7285437;19;154433;-61
2022/05/15 07:28:51;;;;;;;;;;;;;;;21.63;53.55;101395.03;7286883;19;151900;-62
2022/05/15 07:31:19;;;;;;;;;;;;;;;21.62;53.68;101401.84;7283115;19;152826;-62
2022/05/15 07:33:46;;;;;;;;;;;;;;;21.58;53.39;101395.94;7282512;19;154350;-60
2022/05/15 07:36:13;;;;;;;;;;;;;;;21.57;53.11;101404.72;7287947;19;152273;-60
2022/05/15 07:38:40;;;;;;;;;;;;;;;21.60;53.84;101402.13;7284381;19;153071;-60
2022/05/15 07:41:08;;;;;;;;;;;;;;;21.54;53.71;101400.53;7285795;19;151987;-61
2022/05/15 07:43:35;;;;;;;;;;;;;;;21.55;54.01;101393.75;7283702;19;153673;-61
2022/05/15 07:46:02;;;;;;;;;;;;;;;21.61;54.17;101389.75;7281625;19;154435;-59
2022/05/15 07:48:29;;;;;;;;;;;;;;;21.65;54.19;101404.03;7283497;19;152104;-60
2022/05/15 07:50:56;;;;;;;;;;;;;;;21.71;54.04;101398.00;7283814;19;152632;-62
2022/05/15 07:53:23;;;;;;;;;;;;;;;21.72;53.91;101401.66;7280746;19;153226;-62
2022/05/15 07:55:49;;;;;;;;;;;;;;;21.74;54.48;101400.22;7283899;19;152317;-63
2022/05/15 07:58:16;;;;;;;;;;;;;;;21.79;54.51;101398.47;7286672;19;152056;-60
2022/05/15 08:00:43;;;;;;;;;;;;;;;21.83;54.62;101407.94;7284376;19;152046;-62
2022/05/15 08:03:11;;;;;;;;;;;;;;;21.87;54.63;101406.19;7284353;19;153153;-62
2022/05/15 08:08:26;;;;;;;;;;;;;;;21.94;54.14;101407.50;7281859;19;152223;-61
2022/05/15 08:10:53;;;;;;;;;;;;;;;21.95;53.28;101409.19;7284996;19;153772;-62
2022/05/15 08:13:21;;;;;;;;;;;;;;;21.92;52.83;101406.97;7282402;19;153297;-61
2022/05/15 08:15:48;;;;;;;;;;;;;;;21.84;51.80;101398.38;7283099;19;151768;-60
2022/05/15 08:23:48;;;;;;;;;;;;;;;21.95;52.61;101399.91;7284231;19;153550;-62
2022/05/15 08:26:15;;;;;;;;;;;;;;;21.94;51.71;101390.63;7271061;19;157094;-61
2022/05/15 08:28:42;;;;;;;;;;;;;;;21.94;52.12;101392.63;7269791;19;152588;-61
2022/05/15 08:31:09;;;;;;;;;;;;;;;21.95;52.30;101391.44;7280256;19;153508;-60
2022/05/15 08:33:37;;;;;;;;;;;;;;;21.99;51.74;101392.50;7281795;19;154110;-60
2022/05/15 08:36:05;;;;;;;;;;;;;;;22.01;51.76;101398.69;7279310;19;152237;-60
2022/05/15 08:38:32;;;;;;;;;;;;;;;21.99;51.88;101398.97;7280290;19;151507;-60
2022/05/15 08:41:02;;;;;;;;;;;;;;;22.01;51.72;101384.59;7286911;19;153373;-60
2022/05/15 08:43:39;;;;;;;;;;;;;;;22.03;51.53;101387.97;7281067;19;152635;-60
2022/05/15 08:46:16;;;;;;;;;;;;;;;22.04;51.61;101389.63;7286513;19;154498;-60
2022/05/15 08:48:43;;;;;;;;;;;;;;;22.03;51.28;101391.59;7288299;19;151720;-60
2022/05/15 08:51:12;;;;;;;;;;;;;;;22.04;51.61;101398.06;7288238;19;153517;-60
2022/05/15 08:53:41;;;;;;;;;;;;;;;22.04;51.59;101390.44;7286082;19;154193;-61
2022/05/15 08:56:11;;;;;;;;;;;;;;;22.05;51.36;101399.72;7287987;19;151558;-60
2022/05/15 08:58:43;;;;;;;;;;;;;;;22.05;51.09;101388.47;7286363;19;152636;-60
2022/05/15 09:01:19;;;;;;;;;;;;;;;22.05;51.18;101392.13;7288139;19;153383;-60
2022/05/15 09:03:45;;;;;;;;;;;;;;;22.05;51.24;101394.09;7295712;19;151864;-59
2022/05/15 09:06:22;;;;;;;;;;;;;;;22.06;51.39;101390.16;7288194;19;153341;-60
2022/05/15 09:09:07;;;;;;;;;;;;;;;22.05;51.38;101385.66;7288029;19;152096;-60
2022/05/15 09:11:35;;;;;;;;;;;;;;;22.07;51.29;101386.19;7289092;19;153564;-60
2022/05/15 09:14:11;;;;;;;;;;;;;;;22.06;51.11;101387.34;7287860;19;153930;-60
2022/05/15 09:16:42;;;;;;;;;;;;;;;22.07;50.92;101375.78;7285851;19;151543;-60
2022/05/15 09:19:12;;;;;;;;;;;;;;;22.07;50.79;101374.94;7286774;19;152994;-61
2022/05/15 09:21:39;;;;;;;;;;;;;;;22.07;50.98;101383.38;7288179;19;153238;-60
2022/05/15 09:24:09;;;;;;;;;;;;;;;22.08;51.14;101382.22;7289443;19;151738;-60
2022/05/15 09:26:44;;;;;;;;;;;;;;;22.08;51.04;101385.03;7292723;19;152617;-60
2022/05/15 09:29:20;;;;;;;;;;;;;;;22.08;50.79;101385.88;7287382;19;151936;-60
2022/05/15 09:31:47;;;;;;;;;;;;;;;22.09;51.15;101378.25;7285741;19;152382;-60
2022/05/15 09:34:25;;;;;;;;;;;;;;;22.05;50.87;101374.41;7287397;19;153297;-60
2022/05/15 09:38:26;;;;;;;;;;;;;;;22.01;51.38;101365.75;7287405;19;151607;-60
2022/05/15 09:39:43;;;;;;;;;;;;;;;22.01;51.35;101359.28;7287577;19;153660;-61
2022/05/15 09:44:57;;;;;;;;;;;;;;;21.91;51.35;101354.63;7288583;19;152000;-64
2022/05/15 09:47:33;;;;;;;;;;;;;;;21.83;51.15;101346.06;7289298;19;152491;-62
2022/05/15 09:50:00;;;;;;;;;;;;;;;21.82;51.46;101333.13;7295215;19;153860;-62
2022/05/15 09:52:32;;;;;;;;;;;;;;;21.79;51.51;101323.34;7287526;19;153757;-60
2022/05/15 09:55:09;;;;;;;;;;;;;;;21.78;51.31;101318.88;7285186;19;153488;-62
2022/05/15 09:57:36;;;;;;;;;;;;;;;21.77;51.29;101316.34;7286011;19;151956;-61
2022/05/15 10:00:07;;;;;;;;;;;;;;;21.75;51.10;101311.06;7288749;19;152816;-61
2022/05/15 10:02:38;;;;;;;;;;;;;;;21.71;51.20;101313.63;7286283;19;152402;-63
2022/05/15 10:05:16;;;;;;;;;;;;;;;21.68;51.53;101311.44;7288178;19;151842;-60
2022/05/15 10:07:50;;;;;;;;;;;;;;;21.70;51.12;101313.94;7289103;19;152661;-61
2022/05/15 10:10:17;;;;;;;;;;;;;;;21.71;51.02;101305.19;7288546;19;153278;-60
2022/05/15 10:12:50;;;;;;;;;;;;;;;21.67;51.36;101304.13;7295125;19;151813;-61
2022/05/15 10:15:17;;;;;;;;;;;;;;;21.72;50.94;101295.59;7284889;19;154153;-62
2022/05/15 10:17:50;;;;;;;;;;;;;;;21.67;51.58;101290.06;7284844;19;151944;-62
2022/05/15 10:20:25;;;;;;;;;;;;;;;21.66;51.52;101284.78;7285981;19;153460;-63
2022/05/15 10:22:53;;;;;;;;;;;;;;;21.65;51.46;101289.56;7286717;19;153976;-63
2022/05/15 10:25:20;;;;;;;;;;;;;;;21.65;51.39;101288.72;7286559;19;151649;-62
2022/05/15 10:27:50;;;;;;;;;;;;;;;21.61;51.76;101285.69;7287927;19;152985;-61
2022/05/15 10:30:21;;;;;;;;;;;;;;;21.60;51.90;101294.44;7285587;19;153777;-62
2022/05/15 10:32:57;;;;;;;;;;;;;;;21.55;51.70;101306.59;7284510;19;151711;-60
2022/05/15 10:35:34;;;;;;;;;;;;;;;21.54;52.17;101302.09;7293253;19;153141;-61
2022/05/15 10:38:17;;;;;;;;;;;;;;;21.55;51.78;101302.94;7283192;19;151917;-61
2022/05/15 10:40:47;;;;;;;;;;;;;;;21.49;51.87;101307.81;7283530;19;152242;-61
2022/05/15 10:43:26;;;;;;;;;;;;;;;21.50;52.18;101306.69;7287080;19;154437;-63
2022/05/15 10:46:03;;;;;;;;;;;;;;;21.52;52.00;101314.81;7287656;19;151856;-62
2022/05/15 10:48:30;;;;;;;;;;;;;;;21.49;52.16;101324.69;7286929;19;153045;-61
2022/05/15 10:51:02;;;;;;;;;;;;;;;21.46;52.43;101338.53;7283465;19;152213;-62
2022/05/15 10:59:07;;;;;;;;;;;;;;;21.31;53.05;101381.75;7286971;19;151587;-62
2022/05/15 11:01:44;;;;;;;;;;;;;;;21.26;53.47;101379.84;7287536;19;153519;-61
2022/05/15 11:04:22;;;;;;;;;;;;;;;21.21;53.37;101371.47;7285595;19;151786;-61
2022/05/15 11:07:09;;;;;;;;;;;;;;;21.18;53.94;101382.50;7282457;19;152087;-61
2022/05/15 11:09:45;;;;;;;;;;;;;;;21.19;53.47;101396.25;7285211;19;153351;-61
2022/05/15 11:12:14;;;;;;;;;;;;;;;21.19;53.16;101410.31;7282151;19;151906;-60
2022/05/15 11:14:50;;;;;;;;;;;;;;;21.21;53.10;101418.44;7285146;19;151896;-61
2022/05/15 11:17:18;;;;;;;;;;;;;;;21.26;52.86;101416.38;7281454;19;151785;-62
2022/05/15 11:19:46;;;;;;;;;;;;;;;21.27;52.51;101412.44;7290404;19;153672;-63
2022/05/15 11:22:22;;;;;;;;;;;;;;;21.28;52.64;101418.91;7287042;19;153714;-61
2022/05/15 11:25:09;;;;;;;;;;;;;;;21.32;52.66;101427.56;7284651;19;153430;-61
2022/05/15 11:27:43;;;;;;;;;;;;;;;21.32;53.07;101431.22;7285248;19;151723;-62
2022/05/15 11:30:19;;;;;;;;;;;;;;;21.32;53.17;101425.59;7285291;19;154610;-62
2022/05/15 11:32:46;;;;;;;;;;;;;;;21.31;53.71;101435.16;7283020;19;153805;-62
2022/05/15 11:35:13;;;;;;;;;;;;;;;21.28;54.22;101447.84;7285748;19;151517;-62
2022/05/15 11:37:52;;;;;;;;;;;;;;;21.28;54.08;101447.84;7284797;19;153559;-62
2022/05/15 11:40:30;;;;;;;;;;;;;;;21.30;54.68;101450.38;7284653;19;154461;-62
2022/05/15 11:42:57;;;;;;;;;;;;;;;21.29;55.42;101445.88;7271239;19;153407;-61
2022/05/15 11:45:28;;;;;;;;;;;;;;;21.28;56.90;101456.28;7274001;19;154078;-61
2022/05/15 11:48:13;;;;;;;;;;;;;;;21.29;56.38;101468.38;7282951;19;152148;-63
2022/05/15 11:51:00;;;;;;;;;;;;;;;21.28;56.47;101463.88;7284911;19;152749;-62
2022/05/15 11:53:31;;;;;;;;;;;;;;;21.28;57.31;101464.72;7281962;19;153707;-62
2022/05/15 11:56:15;;;;;;;;;;;;;;;21.28;57.25;101455.44;7286067;19;152278;-62
2022/05/15 11:58:42;;;;;;;;;;;;;;;21.28;57.25;101438.56;7280084;19;153382;-60
2022/05/15 12:01:12;;;;;;;;;;;;;;;21.27;57.64;101434.94;7282859;19;154332;-61
2022/05/15 12:03:40;;;;;;;;;;;;;;;21.28;57.29;101430.16;7284952;19;151641;-61
2022/05/15 12:06:08;;;;;;;;;;;;;;;21.31;57.34;101426.72;7290336;19;153265;-61
2022/05/15 12:08:37;;;;;;;;;;;;;;;21.28;57.27;101430.16;7283135;19;151540;-63
2022/05/15 12:11:14;;;;;;;;;;;;;;;21.28;58.51;101428.16;7283358;19;152748;-62
2022/05/15 12:13:42;;;;;;;;;;;;;;;21.29;58.21;101424.22;7280624;19;152210;-61
2022/05/15 12:16:12;;;;;;;;;;;;;;;21.30;58.03;101425.06;7285108;19;151897;-62
2022/05/15 12:18:39;;;;;;;;;;;;;;;21.29;58.09;101414.97;7284836;19;152552;-63
2022/05/15 12:21:06;;;;;;;;;;;;;;;21.28;57.89;101418.91;7288066;19;152028;-62
2022/05/15 12:23:34;;;;;;;;;;;;;;;21.28;57.45;101396.41;7288472;19;151709;-62
2022/05/15 12:26:11;;;;;;;;;;;;;;;21.27;56.89;101387.16;7292397;19;152965;-62
2022/05/15 12:31:25;;;;;;;;;;;;;;;21.27;57.53;101384.34;7289979;19;153293;-62
2022/05/15 12:34:07;;;;;;;;;;;;;;;21.26;57.33;101385.47;7290980;19;152139;-61
2022/05/15 12:36:36;;;;;;;;;;;;;;;21.26;57.13;101379.84;7289120;19;151795;-61
2022/05/15 12:39:03;;;;;;;;;;;;;;;21.27;57.19;101384.34;7271801;19;152845;-61
2022/05/15 12:41:36;;;;;;;;;;;;;;;21.28;57.53;101382.38;7283778;19;154164;-63
2022/05/15 12:44:06;;;;;;;;;;;;;;;21.27;57.79;101380.69;7286680;19;152238;-62
2022/05/15 12:46:37;;;;;;;;;;;;;;;21.27;57.48;101384.34;7288291;19;153988;-62
2022/05/15 12:49:05;;;;;;;;;;;;;;;21.27;58.30;101380.69;7287097;19;153394;-62
2022/05/15 12:51:34;;;;;;;;;;;;;;;21.26;58.84;101379.00;7295444;19;151603;-62
2022/05/15 12:54:02;;;;;;;;;;;;;;;21.24;59.26;101367.25;7286669;19;154477;-62
2022/05/15 12:56:32;;;;;;;;;;;;;;;21.23;59.40;101355.16;7288035;19;151875;-62
2022/05/15 12:59:07;;;;;;;;;;;;;;;21.22;59.25;101345.06;7287023;19;153503;-62
2022/05/15 13:01:34;;;;;;;;;;;;;;;21.22;60.49;101339.44;7287843;19;153496;-62
2022/05/15 13:04:02;;;;;;;;;;;;;;;21.22;61.50;101338.59;7290246;19;151864;-63